Green Ice — C6SO4 — position and weather

sailwx.info

Track history (hours):
 
Tides and Currents Weather Stations Pressure Air Temp Water Temp Dewpoint Dewpoint Depression Visibility Wind Speed Wind Dir Waves Ship Positions

Green Ice

Last reported at 2014-Jul-22 01:23 UTC. Time now 2014-Jul-23 03:44 UTC.
Position N 60°32' E 004°57'.

Length 86 m; draft 5.5 m.

Type: Cargo ship. MMSI: 311411000.

Date/timePositionNaut miles runAvg speedWind from/ knotsBaromVisibWave heightAir tempDewpointWater temp
2014-Jul-22 01:23N 60°32' E 004°57'1113.2
2014-Jul-22 00:31N 60°23' E 005°10'4 4.1
2014-Jul-21 23:28N 60°23' E 005°19'0 0.0
2014-Jul-21 22:28N 60°23' E 005°19'0 0.0
2014-Jul-21 21:28N 60°23' E 005°19'0 0.0
2014-Jul-21 20:28N 60°23' E 005°19'0 0.0
2014-Jul-21 20:16N 60°23' E 005°19'0 0.0
2014-Jul-21 19:28N 60°23' E 005°19'0 0.0
2014-Jul-21 18:28N 60°23' E 005°19'3 3.6
2014-Jul-21 17:33N 60°24' E 005°12'5911.6
2014-Jul-21 12:27N 59°24' E 005°15'4 2.2
2014-Jul-21 10:29N 59°20' E 005°18'0 0.0
2014-Jul-21 09:19N 59°20' E 005°18'7 8.8
2014-Jul-21 08:33N 59°14' E 005°21'1312.7
2014-Jul-21 07:34N 59°03' E 005°35'9 8.7
2014-Jul-21 06:34N 58°57' E 005°46'5 4.3
2014-Jul-21 05:31N 58°52' E 005°45'0 0.0
2014-Jul-21 04:31N 58°52' E 005°45'0 0.0
2014-Jul-21 03:31N 58°52' E 005°45'0 0.0
2014-Jul-21 02:31N 58°52' E 005°45'7 7.0
2014-Jul-21 01:34N 58°59' E 005°47'8 7.6
2014-Jul-21 00:33N 59°01' E 005°33'1313.4
2014-Jul-20 23:33N 58°48' E 005°25'1414.0
2014-Jul-20 22:33N 58°34' E 005°34'1414.2
2014-Jul-20 21:33N 58°23' E 005°50'74 4.5
2014-Jul-20 05:04N 58°04' E 008°06'5 9.7
2014-Jul-20 04:33N 58°05' E 008°15'1110.8
2014-Jul-20 03:33N 58°11' E 008°32'1111.2
2014-Jul-20 02:33N 58°18' E 008°50'1413.3
2014-Jul-20 01:32N 58°26' E 009°10'1313.2
2014-Jul-20 00:34N 58°33' E 009°30'1312.8
2014-Jul-19 23:33N 58°41' E 009°51'1313.0
2014-Jul-19 22:33N 58°49' E 010°10'1313.4
2014-Jul-19 21:33N 58°56' E 010°32'1212.4
2014-Jul-19 20:33N 59°01' E 010°53'1010.1
2014-Jul-19 19:33N 59°11' E 010°57'0 0.1
2014-Jul-19 18:32N 59°11' E 010°57'0 0.0
2014-Jul-19 17:32N 59°11' E 010°57'0 0.0
2014-Jul-19 16:23N 59°11' E 010°57'0 0.0
2014-Jul-19 15:32N 59°11' E 010°57'0 0.0
2014-Jul-19 14:32N 59°11' E 010°57'0 0.0
2014-Jul-19 13:32N 59°11' E 010°57'0 0.0
2014-Jul-19 12:32N 59°11' E 010°57'0 0.0
2014-Jul-19 11:32N 59°11' E 010°57'0 0.0
2014-Jul-19 10:32N 59°11' E 010°57'0 0.0
2014-Jul-19 09:32N 59°11' E 010°57'4 4.5
2014-Jul-19 08:34N 59°07' E 010°58'8 8.4
2014-Jul-19 07:33N 59°02' E 010°45'1512.7
2014-Jul-19 06:22N 58°57' E 010°17'9 4.2
2014-Jul-19 04:13N 59°02' E 010°03'0 0.0
2014-Jul-19 03:31N 59°02' E 010°03'0 0.0
2014-Jul-19 02:31N 59°02' E 010°03'0 0.0
2014-Jul-19 01:13N 59°02' E 010°03'0 0.0
2014-Jul-19 00:29N 59°02' E 010°03'3 3.6
2014-Jul-18 23:31N 58°59' E 010°04'9 9.1
2014-Jul-18 22:33N 58°56' E 009°48'1211.7
2014-Jul-18 21:33N 58°45' E 009°56'1413.7
2014-Jul-18 20:33N 58°33' E 010°06'2913.9
2014-Jul-18 18:28N 58°06' E 010°28'1213.5
2014-Jul-18 17:34N 57°55' E 010°38'1211.9
2014-Jul-18 16:33N 57°43' E 010°41'3 3.3
2014-Jul-18 15:33N 57°42' E 010°35'0 0.0
2014-Jul-18 14:33N 57°42' E 010°35'5 5.0
2014-Jul-18 13:33N 57°44' E 010°44'1111.3
2014-Jul-18 12:33N 57°43' E 010°23'148 9.9
2014-Jul-17 21:32N 55°48' E 007°32'1414.2
2014-Jul-17 20:34N 55°35' E 007°24'1514.4
2014-Jul-17 19:31N 55°21' E 007°29'1414.3
2014-Jul-17 18:33N 55°07' E 007°36'1816.3
2014-Jul-17 17:26N 54°50' E 007°43'1011.6
2014-Jul-17 16:33N 54°40' E 007°48'1414.4
2014-Jul-17 15:34N 54°26' E 007°54'1413.8
2014-Jul-17 14:33N 54°13' E 008°01'1312.7
2014-Jul-17 13:33N 54°01' E 008°09'1111.4
2014-Jul-17 12:34N 53°59' E 008°28'1010.4
2014-Jul-17 11:34N 53°53' E 008°43'1 0.9
2014-Jul-17 10:32N 53°52' E 008°43'0 0.0
2014-Jul-17 09:32N 53°52' E 008°43'0 0.0
2014-Jul-17 08:32N 53°52' E 008°43'0 0.0
2014-Jul-17 07:32N 53°52' E 008°43'0 0.0
2014-Jul-17 06:32N 53°52' E 008°43'0 0.0
2014-Jul-17 05:32N 53°52' E 008°43'0 0.0
2014-Jul-17 04:29N 53°52' E 008°43'0 0.0
2014-Jul-17 03:32N 53°52' E 008°43'0 0.0
2014-Jul-17 02:32N 53°52' E 008°43'0 0.0
2014-Jul-17 01:32N 53°52' E 008°43'8 8.1
2014-Jul-17 00:33N 53°58' E 008°34'1515.3
2014-Jul-16 23:34N 53°59' E 008°08'2115.0
2014-Jul-16 22:08N 53°55' E 007°33'2213.8
2014-Jul-16 20:32N 53°49' E 006°56'1212.8
2014-Jul-16 19:33N 53°46' E 006°36'1110.7
2014-Jul-16 18:30N 53°37' E 006°24'1314.0
2014-Jul-16 17:33N 53°32' E 006°44'6 5.8
2014-Jul-16 16:32N 53°27' E 006°49'0 0.0
2014-Jul-16 15:32N 53°27' E 006°49'0 0.0
2014-Jul-16 14:23N 53°27' E 006°49'0 0.0
2014-Jul-16 13:32N 53°27' E 006°49'0 0.0
2014-Jul-16 12:26N 53°27' E 006°49'0 0.0
2014-Jul-16 11:29N 53°27' E 006°49'0 0.0
2014-Jul-16 10:32N 53°27' E 006°49'0 0.0
2014-Jul-16 09:14N 53°27' E 006°49'0 0.0
2014-Jul-16 08:29N 53°27' E 006°49'0 0.0
2014-Jul-16 07:29N 53°27' E 006°49'0 0.0
2014-Jul-16 06:23N 53°27' E 006°49'0 0.0
2014-Jul-16 05:32N 53°27' E 006°49'0 0.0
2014-Jul-16 04:29N 53°27' E 006°49'0 0.0
2014-Jul-16 03:32N 53°27' E 006°49'0 0.0
2014-Jul-16 02:29N 53°27' E 006°49'4 4.5
2014-Jul-16 01:33N 53°31' E 006°47'1511.7
2014-Jul-16 00:15N 53°37' E 006°23'28213.3
2014-Jul-15 03:05N 58°18' E 005°31'3212.8
2014-Jul-15 00:33N 58°50' E 005°27'1313.2
2014-Jul-14 23:33N 59°03' E 005°33'9 9.0
2014-Jul-14 22:33N 58°56' E 005°46'4 4.0
2014-Jul-14 21:32N 58°52' E 005°45'1 0.9
2014-Jul-14 20:34N 58°53' E 005°45'9 8.7
2014-Jul-14 19:34N 59°01' E 005°40'1313.1
2014-Jul-14 18:33N 59°10' E 005°20'1312.5
2014-Jul-14 17:33N 59°22' E 005°18'61 6.0
2014-Jul-14 07:19N 60°23' E 005°10'308 6.2
2014-Jul-12 05:33N 64°45' E 010°60'1212.4
2014-Jul-12 04:33N 64°54' E 011°20'1312.5
2014-Jul-12 03:33N 65°02' E 011°43'1412.6
2014-Jul-12 02:27N 65°15' E 011°56'  
Track history (hours):
 
Tides and Currents Weather Stations Pressure Air Temp Water Temp Dewpoint Dewpoint Depression Visibility Wind Speed Wind Dir Waves Ship Positions

Green Ice

Last reported at 2014-Jul-22 01:23 UTC. Time now 2014-Jul-23 03:44 UTC.
Position N 60°32' E 004°57'.

Length 86 m; draft 5.5 m.

Type: Cargo ship. MMSI: 311411000.

Date/timePositionNaut miles runAvg speedWind from/ knotsBaromVisibWave heightAir tempDewpointWater temp
2014-Jul-22 01:23N 60°32' E 004°57'1113.2
2014-Jul-22 00:31N 60°23' E 005°10'4 4.1
2014-Jul-21 23:28N 60°23' E 005°19'0 0.0
2014-Jul-21 22:28N 60°23' E 005°19'0 0.0
2014-Jul-21 21:28N 60°23' E 005°19'0 0.0
2014-Jul-21 20:28N 60°23' E 005°19'0 0.0
2014-Jul-21 20:16N 60°23' E 005°19'0 0.0
2014-Jul-21 19:28N 60°23' E 005°19'0 0.0
2014-Jul-21 18:28N 60°23' E 005°19'3 3.6
2014-Jul-21 17:33N 60°24' E 005°12'5911.6
2014-Jul-21 12:27N 59°24' E 005°15'4 2.2
2014-Jul-21 10:29N 59°20' E 005°18'0 0.0
2014-Jul-21 09:19N 59°20' E 005°18'7 8.8
2014-Jul-21 08:33N 59°14' E 005°21'1312.7
2014-Jul-21 07:34N 59°03' E 005°35'9 8.7
2014-Jul-21 06:34N 58°57' E 005°46'5 4.3
2014-Jul-21 05:31N 58°52' E 005°45'0 0.0
2014-Jul-21 04:31N 58°52' E 005°45'0 0.0
2014-Jul-21 03:31N 58°52' E 005°45'0 0.0
2014-Jul-21 02:31N 58°52' E 005°45'7 7.0
2014-Jul-21 01:34N 58°59' E 005°47'8 7.6
2014-Jul-21 00:33N 59°01' E 005°33'1313.4
2014-Jul-20 23:33N 58°48' E 005°25'1414.0
2014-Jul-20 22:33N 58°34' E 005°34'1414.2
2014-Jul-20 21:33N 58°23' E 005°50'74 4.5
2014-Jul-20 05:04N 58°04' E 008°06'5 9.7
2014-Jul-20 04:33N 58°05' E 008°15'1110.8
2014-Jul-20 03:33N 58°11' E 008°32'1111.2
2014-Jul-20 02:33N 58°18' E 008°50'1413.3
2014-Jul-20 01:32N 58°26' E 009°10'1313.2
2014-Jul-20 00:34N 58°33' E 009°30'1312.8
2014-Jul-19 23:33N 58°41' E 009°51'1313.0
2014-Jul-19 22:33N 58°49' E 010°10'1313.4
2014-Jul-19 21:33N 58°56' E 010°32'1212.4
2014-Jul-19 20:33N 59°01' E 010°53'1010.1
2014-Jul-19 19:33N 59°11' E 010°57'0 0.1
2014-Jul-19 18:32N 59°11' E 010°57'0 0.0
2014-Jul-19 17:32N 59°11' E 010°57'0 0.0
2014-Jul-19 16:23N 59°11' E 010°57'0 0.0
2014-Jul-19 15:32N 59°11' E 010°57'0 0.0
2014-Jul-19 14:32N 59°11' E 010°57'0 0.0
2014-Jul-19 13:32N 59°11' E 010°57'0 0.0
2014-Jul-19 12:32N 59°11' E 010°57'0 0.0
2014-Jul-19 11:32N 59°11' E 010°57'0 0.0
2014-Jul-19 10:32N 59°11' E 010°57'0 0.0
2014-Jul-19 09:32N 59°11' E 010°57'4 4.5
2014-Jul-19 08:34N 59°07' E 010°58'8 8.4
2014-Jul-19 07:33N 59°02' E 010°45'1512.7
2014-Jul-19 06:22N 58°57' E 010°17'9 4.2
2014-Jul-19 04:13N 59°02' E 010°03'0 0.0
2014-Jul-19 03:31N 59°02' E 010°03'0 0.0
2014-Jul-19 02:31N 59°02' E 010°03'0 0.0
2014-Jul-19 01:13N 59°02' E 010°03'0 0.0
2014-Jul-19 00:29N 59°02' E 010°03'3 3.6
2014-Jul-18 23:31N 58°59' E 010°04'9 9.1
2014-Jul-18 22:33N 58°56' E 009°48'1211.7
2014-Jul-18 21:33N 58°45' E 009°56'1413.7
2014-Jul-18 20:33N 58°33' E 010°06'2913.9
2014-Jul-18 18:28N 58°06' E 010°28'1213.5
2014-Jul-18 17:34N 57°55' E 010°38'1211.9
2014-Jul-18 16:33N 57°43' E 010°41'3 3.3
2014-Jul-18 15:33N 57°42' E 010°35'0 0.0
2014-Jul-18 14:33N 57°42' E 010°35'5 5.0
2014-Jul-18 13:33N 57°44' E 010°44'1111.3
2014-Jul-18 12:33N 57°43' E 010°23'148 9.9
2014-Jul-17 21:32N 55°48' E 007°32'1414.2
2014-Jul-17 20:34N 55°35' E 007°24'1514.4
2014-Jul-17 19:31N 55°21' E 007°29'1414.3
2014-Jul-17 18:33N 55°07' E 007°36'1816.3
2014-Jul-17 17:26N 54°50' E 007°43'1011.6
2014-Jul-17 16:33N 54°40' E 007°48'1414.4
2014-Jul-17 15:34N 54°26' E 007°54'1413.8
2014-Jul-17 14:33N 54°13' E 008°01'1312.7
2014-Jul-17 13:33N 54°01' E 008°09'1111.4
2014-Jul-17 12:34N 53°59' E 008°28'1010.4
2014-Jul-17 11:34N 53°53' E 008°43'1 0.9
2014-Jul-17 10:32N 53°52' E 008°43'0 0.0
2014-Jul-17 09:32N 53°52' E 008°43'0 0.0
2014-Jul-17 08:32N 53°52' E 008°43'0 0.0
2014-Jul-17 07:32N 53°52' E 008°43'0 0.0
2014-Jul-17 06:32N 53°52' E 008°43'0 0.0
2014-Jul-17 05:32N 53°52' E 008°43'0 0.0
2014-Jul-17 04:29N 53°52' E 008°43'0 0.0
2014-Jul-17 03:32N 53°52' E 008°43'0 0.0
2014-Jul-17 02:32N 53°52' E 008°43'0 0.0
2014-Jul-17 01:32N 53°52' E 008°43'8 8.1
2014-Jul-17 00:33N 53°58' E 008°34'1515.3
2014-Jul-16 23:34N 53°59' E 008°08'2115.0
2014-Jul-16 22:08N 53°55' E 007°33'2213.8
2014-Jul-16 20:32N 53°49' E 006°56'1212.8
2014-Jul-16 19:33N 53°46' E 006°36'1110.7
2014-Jul-16 18:30N 53°37' E 006°24'1314.0
2014-Jul-16 17:33N 53°32' E 006°44'6 5.8
2014-Jul-16 16:32N 53°27' E 006°49'0 0.0
2014-Jul-16 15:32N 53°27' E 006°49'0 0.0
2014-Jul-16 14:23N 53°27' E 006°49'0 0.0
2014-Jul-16 13:32N 53°27' E 006°49'0 0.0
2014-Jul-16 12:26N 53°27' E 006°49'0 0.0
2014-Jul-16 11:29N 53°27' E 006°49'0 0.0
2014-Jul-16 10:32N 53°27' E 006°49'0 0.0
2014-Jul-16 09:14N 53°27' E 006°49'0 0.0
2014-Jul-16 08:29N 53°27' E 006°49'0 0.0
2014-Jul-16 07:29N 53°27' E 006°49'0 0.0
2014-Jul-16 06:23N 53°27' E 006°49'0 0.0
2014-Jul-16 05:32N 53°27' E 006°49'0 0.0
2014-Jul-16 04:29N 53°27' E 006°49'0 0.0
2014-Jul-16 03:32N 53°27' E 006°49'0 0.0
2014-Jul-16 02:29N 53°27' E 006°49'4 4.5
2014-Jul-16 01:33N 53°31' E 006°47'1511.7
2014-Jul-16 00:15N 53°37' E 006°23'28213.3
2014-Jul-15 03:05N 58°18' E 005°31'3212.8
2014-Jul-15 00:33N 58°50' E 005°27'1313.2
2014-Jul-14 23:33N 59°03' E 005°33'9 9.0
2014-Jul-14 22:33N 58°56' E 005°46'4 4.0
2014-Jul-14 21:32N 58°52' E 005°45'1 0.9
2014-Jul-14 20:34N 58°53' E 005°45'9 8.7
2014-Jul-14 19:34N 59°01' E 005°40'1313.1
2014-Jul-14 18:33N 59°10' E 005°20'1312.5
2014-Jul-14 17:33N 59°22' E 005°18'61 6.0
2014-Jul-14 07:19N 60°23' E 005°10'308 6.2
2014-Jul-12 05:33N 64°45' E 010°60'1212.4
2014-Jul-12 04:33N 64°54' E 011°20'1312.5
2014-Jul-12 03:33N 65°02' E 011°43'1412.6
2014-Jul-12 02:27N 65°15' E 011°56'  

Dump ship's entire track history